createdAt,value
2022-11-15T00:00:09.234Z,6.16
2022-11-15T00:01:09.138Z,6.17
2022-11-15T00:02:09.158Z,6.14
2022-11-15T00:03:09.100Z,6.16
2022-11-15T00:04:09.091Z,6.16
2022-11-15T00:05:09.090Z,6.14
2022-11-15T00:06:09.060Z,6.14
2022-11-15T00:07:10.513Z,6.13
2022-11-15T00:08:09.101Z,6.13
2022-11-15T00:09:09.020Z,6.13
2022-11-15T00:10:09.018Z,6.13
2022-11-15T00:11:09.005Z,6.11
2022-11-15T00:12:09.018Z,6.11
2022-11-15T00:13:08.976Z,6.11
2022-11-15T00:14:08.987Z,6.13
2022-11-15T00:15:08.966Z,6.10
2022-11-15T00:16:08.946Z,6.11
2022-11-15T00:17:08.944Z,6.08
2022-11-15T00:18:08.925Z,6.03
2022-11-15T00:19:08.922Z,6.05
2022-11-15T00:20:08.964Z,6.05
2022-11-15T00:21:08.874Z,6.03
2022-11-15T00:22:08.899Z,6.05
2022-11-15T00:23:08.864Z,6.06
2022-11-15T00:24:08.856Z,6.03
2022-11-15T00:25:08.859Z,6.05
2022-11-15T00:26:08.848Z,6.03
2022-11-15T00:27:08.819Z,5.98
2022-11-15T00:28:08.842Z,5.95
2022-11-15T00:29:08.855Z,5.92
2022-11-15T00:30:08.811Z,5.92
2022-11-15T00:31:09.460Z,5.93
2022-11-15T00:32:08.803Z,5.92
2022-11-15T00:33:08.781Z,5.93
2022-11-15T00:34:08.794Z,5.93
2022-11-15T00:35:08.776Z,5.92
2022-11-15T00:36:08.761Z,5.93
2022-11-15T00:37:08.759Z,5.98
2022-11-15T00:38:08.691Z,5.98
2022-11-15T00:39:08.673Z,5.99
2022-11-15T00:40:08.663Z,5.99
2022-11-15T00:41:09.907Z,5.98
2022-11-15T00:42:08.668Z,5.98
2022-11-15T00:43:08.620Z,5.99
2022-11-15T00:44:08.614Z,5.98
2022-11-15T00:45:08.588Z,5.98
2022-11-15T00:46:08.578Z,5.96
2022-11-15T00:47:08.558Z,5.96
2022-11-15T00:48:08.606Z,5.95
2022-11-15T00:49:08.549Z,5.93
2022-11-15T00:50:11.702Z,5.93
2022-11-15T00:51:09.553Z,5.87
2022-11-15T00:52:08.508Z,5.87
2022-11-15T00:53:08.501Z,5.84
2022-11-15T00:54:08.493Z,5.83
2022-11-15T00:55:08.479Z,5.84
2022-11-15T00:56:08.455Z,5.84
2022-11-15T00:57:08.452Z,5.87
2022-11-15T00:58:08.443Z,5.87
2022-11-15T00:59:08.416Z,5.88
2022-11-15T01:00:08.435Z,5.87
2022-11-15T01:01:08.471Z,5.88
2022-11-15T01:02:08.406Z,5.88
2022-11-15T01:03:08.384Z,5.87
2022-11-15T01:04:08.373Z,5.88
2022-11-15T01:05:08.352Z,5.90
2022-11-15T01:06:08.352Z,5.88
2022-11-15T01:07:08.536Z,5.87
2022-11-15T01:08:08.322Z,5.84
2022-11-15T01:09:08.311Z,5.84
2022-11-15T01:10:08.311Z,5.81
2022-11-15T01:11:08.285Z,5.81
2022-11-15T01:12:08.280Z,5.83
2022-11-15T01:13:08.241Z,5.78
2022-11-15T01:14:08.261Z,5.80
2022-11-15T01:15:08.230Z,5.77
2022-11-15T01:16:08.222Z,5.75
2022-11-15T01:17:08.210Z,5.77
2022-11-15T01:18:08.192Z,5.75
2022-11-15T01:19:08.169Z,5.74
2022-11-15T01:20:08.168Z,5.70
2022-11-15T01:21:08.168Z,5.74
2022-11-15T01:22:08.148Z,5.70
2022-11-15T01:23:08.127Z,5.69
2022-11-15T01:24:08.114Z,5.70
2022-11-15T01:25:08.121Z,5.69
2022-11-15T01:26:08.088Z,5.73
2022-11-15T01:27:08.077Z,5.70
2022-11-15T01:28:08.067Z,5.70
2022-11-15T01:29:08.054Z,5.67
2022-11-15T01:30:08.103Z,5.67
2022-11-15T01:31:08.044Z,5.66
2022-11-15T01:32:08.022Z,5.67
2022-11-15T01:33:08.027Z,5.70
2022-11-15T01:34:07.994Z,5.70
2022-11-15T01:35:07.994Z,5.70
2022-11-15T01:36:07.994Z,5.70
2022-11-15T01:37:08.126Z,5.67
2022-11-15T01:38:07.953Z,5.66
2022-11-15T01:39:07.964Z,5.67
2022-11-15T01:40:07.925Z,5.67
2022-11-15T01:41:07.921Z,5.66
2022-11-15T01:42:07.924Z,5.67
2022-11-15T01:43:07.897Z,5.66
2022-11-15T01:44:07.874Z,5.66
2022-11-15T01:45:07.909Z,5.65
2022-11-15T01:46:07.881Z,5.65
2022-11-15T01:47:07.854Z,5.63
2022-11-15T01:48:07.824Z,5.62
2022-11-15T01:49:07.812Z,5.63
2022-11-15T01:50:07.804Z,5.62
2022-11-15T01:51:07.799Z,5.62
2022-11-15T01:52:07.802Z,5.62
2022-11-15T01:53:07.777Z,5.59
2022-11-15T01:54:07.751Z,5.58
2022-11-15T01:55:07.743Z,5.55
2022-11-15T01:56:07.732Z,5.55
2022-11-15T01:57:07.880Z,5.52
2022-11-15T01:58:07.699Z,5.52
2022-11-15T01:59:07.727Z,5.51
2022-11-15T02:00:07.709Z,5.51
2022-11-15T02:01:07.739Z,5.51
2022-11-15T02:02:07.679Z,5.49
2022-11-15T02:03:07.659Z,5.51
2022-11-15T02:04:07.627Z,5.48
2022-11-15T02:05:07.605Z,5.47
2022-11-15T02:06:07.616Z,5.47
2022-11-15T02:07:07.664Z,5.47
2022-11-15T02:08:07.567Z,5.47
2022-11-15T02:09:07.559Z,5.45
2022-11-15T02:10:07.727Z,5.45
2022-11-15T02:11:07.558Z,5.44
2022-11-15T02:12:07.547Z,5.44
2022-11-15T02:13:07.511Z,5.44
2022-11-15T02:14:07.502Z,5.45
2022-11-15T02:15:07.517Z,5.45
2022-11-15T02:16:07.537Z,5.45
2022-11-15T02:17:07.462Z,5.44
2022-11-15T02:18:07.451Z,5.45
2022-11-15T02:19:07.433Z,5.44
2022-11-15T02:20:07.684Z,5.45
2022-11-15T02:21:07.421Z,5.47
2022-11-15T02:22:07.402Z,5.45
2022-11-15T02:23:07.383Z,5.45
2022-11-15T02:24:07.383Z,5.42
2022-11-15T02:25:07.368Z,5.42
2022-11-15T02:26:07.342Z,5.42
2022-11-15T02:27:07.340Z,5.42
2022-11-15T02:28:07.314Z,5.42
2022-11-15T02:29:07.313Z,5.45
2022-11-15T02:30:07.313Z,5.44
2022-11-15T02:31:07.293Z,5.42
2022-11-15T02:32:07.279Z,5.42
2022-11-15T02:33:07.260Z,5.44
2022-11-15T02:34:07.250Z,5.42
2022-11-15T02:35:07.238Z,5.42
2022-11-15T02:36:07.235Z,5.44
2022-11-15T02:37:07.209Z,5.42
2022-11-15T02:38:07.239Z,5.42
2022-11-15T02:39:07.189Z,5.42
2022-11-15T02:40:07.177Z,5.41
2022-11-15T02:41:07.185Z,5.41
2022-11-15T02:42:07.177Z,5.40
2022-11-15T02:43:08.554Z,5.41
2022-11-15T02:44:07.145Z,5.41
2022-11-15T02:45:07.156Z,5.41
2022-11-15T02:46:07.118Z,5.40
2022-11-15T02:47:07.097Z,5.40
2022-11-15T02:48:07.277Z,5.41
2022-11-15T02:49:07.115Z,5.41
2022-11-15T02:50:07.066Z,5.40
2022-11-15T02:51:07.055Z,5.38
2022-11-15T02:52:07.033Z,5.40
2022-11-15T02:53:07.094Z,5.40
2022-11-15T02:54:07.024Z,5.40
2022-11-15T02:55:07.002Z,5.38
2022-11-15T02:56:06.997Z,5.37
2022-11-15T02:57:06.968Z,5.38
2022-11-15T02:58:06.951Z,5.38
2022-11-15T02:59:06.935Z,5.40
2022-11-15T03:00:06.923Z,5.40
2022-11-15T03:01:07.094Z,5.40
2022-11-15T03:02:06.891Z,5.40
2022-11-15T03:03:06.880Z,5.37
2022-11-15T03:04:06.873Z,5.38
2022-11-15T03:05:06.904Z,5.38
2022-11-15T03:06:06.879Z,5.37
2022-11-15T03:07:06.868Z,5.37
2022-11-15T03:08:06.822Z,5.35
2022-11-15T03:09:06.831Z,5.35
2022-11-15T03:10:06.799Z,5.35
2022-11-15T03:11:06.819Z,5.35
2022-11-15T03:12:06.768Z,5.37
2022-11-15T03:13:06.753Z,5.37
2022-11-15T03:14:06.751Z,5.35
2022-11-15T03:15:06.728Z,5.37
2022-11-15T03:16:06.717Z,5.35
2022-11-15T03:17:06.759Z,5.35
2022-11-15T03:18:06.699Z,5.40
2022-11-15T03:19:06.684Z,5.38
2022-11-15T03:20:06.709Z,5.40
2022-11-15T03:21:06.664Z,5.40
2022-11-15T03:22:06.686Z,5.38
2022-11-15T03:23:06.631Z,5.41
2022-11-15T03:24:06.721Z,5.41
2022-11-15T03:25:06.608Z,5.44
2022-11-15T03:26:06.655Z,5.45
2022-11-15T03:27:06.608Z,5.45
2022-11-15T03:28:06.575Z,5.44
2022-11-15T03:29:06.556Z,5.45
2022-11-15T03:30:06.636Z,5.44
2022-11-15T03:31:06.544Z,5.41
2022-11-15T03:32:06.511Z,5.40
2022-11-15T03:33:06.504Z,5.40
2022-11-15T03:34:06.504Z,5.40
2022-11-15T03:35:06.486Z,5.41
2022-11-15T03:36:06.472Z,5.42
2022-11-15T03:37:06.462Z,5.41
2022-11-15T03:38:06.498Z,5.42
2022-11-15T03:39:06.448Z,5.40
2022-11-15T03:40:06.593Z,5.40
2022-11-15T03:41:06.457Z,5.41
2022-11-15T03:42:06.427Z,5.41
2022-11-15T03:43:06.411Z,5.42
2022-11-15T03:44:06.379Z,5.44
2022-11-15T03:45:06.374Z,5.44
2022-11-15T03:46:06.362Z,5.45
2022-11-15T03:47:06.339Z,5.42
2022-11-15T03:48:06.309Z,5.42
2022-11-15T03:49:06.301Z,5.42
2022-11-15T03:50:06.293Z,5.41
2022-11-15T03:51:06.292Z,5.41
2022-11-15T03:52:06.269Z,5.40
2022-11-15T03:53:06.264Z,5.42
2022-11-15T03:54:06.269Z,5.42
2022-11-15T03:55:06.251Z,5.42
2022-11-15T03:56:06.219Z,5.42
2022-11-15T03:57:06.222Z,5.42
2022-11-15T03:58:06.193Z,5.42
2022-11-15T03:59:06.188Z,5.42
2022-11-15T04:00:06.181Z,5.44
2022-11-15T04:01:06.221Z,5.42
2022-11-15T04:02:06.178Z,5.44
2022-11-15T04:03:06.154Z,5.42
2022-11-15T04:04:06.127Z,5.42
2022-11-15T04:05:06.117Z,5.41
2022-11-15T04:06:06.107Z,5.35
2022-11-15T04:07:06.140Z,5.37
2022-11-15T04:08:06.054Z,5.38
2022-11-15T04:09:06.064Z,5.38
2022-11-15T04:10:06.053Z,5.40
2022-11-15T04:11:06.069Z,5.38
2022-11-15T04:12:06.035Z,5.40
2022-11-15T04:13:06.055Z,5.42
2022-11-15T04:14:06.015Z,5.42
2022-11-15T04:15:05.993Z,5.44
2022-11-15T04:16:05.983Z,5.42
2022-11-15T04:17:05.973Z,5.41
2022-11-15T04:18:05.966Z,5.41
2022-11-15T04:19:05.954Z,5.41
2022-11-15T04:20:05.924Z,5.41
2022-11-15T04:21:05.902Z,5.38
2022-11-15T04:22:05.913Z,5.38
2022-11-15T04:23:05.876Z,5.41
2022-11-15T04:24:05.917Z,5.41
2022-11-15T04:25:05.873Z,5.40
2022-11-15T04:26:05.854Z,5.40
2022-11-15T04:27:05.850Z,5.40
2022-11-15T04:28:05.838Z,5.41
2022-11-15T04:29:05.810Z,5.40
2022-11-15T04:30:05.808Z,5.38
2022-11-15T04:31:05.828Z,5.37
2022-11-15T04:32:05.783Z,5.37
2022-11-15T04:33:05.760Z,5.33
2022-11-15T04:34:05.760Z,5.33
2022-11-15T04:35:05.736Z,5.33
2022-11-15T04:36:05.719Z,5.32
2022-11-15T04:37:05.775Z,5.33
2022-11-15T04:38:05.698Z,5.32
2022-11-15T04:39:05.687Z,5.32
2022-11-15T04:40:05.717Z,5.29
2022-11-15T04:41:05.656Z,5.29
2022-11-15T04:42:05.911Z,5.29
2022-11-15T04:43:05.667Z,5.27
2022-11-15T04:44:05.633Z,5.30
2022-11-15T04:45:05.634Z,5.29
2022-11-15T04:46:05.595Z,5.27
2022-11-15T04:47:05.646Z,5.27
2022-11-15T04:48:05.595Z,5.27
2022-11-15T04:49:05.713Z,5.27
2022-11-15T04:50:05.563Z,5.24
2022-11-15T04:51:05.564Z,5.26
2022-11-15T04:52:05.607Z,5.26
2022-11-15T04:53:05.666Z,5.26
2022-11-15T04:54:05.484Z,5.24
2022-11-15T04:55:08.332Z,5.23
2022-11-15T04:56:05.542Z,5.23
2022-11-15T04:57:05.475Z,5.23
2022-11-15T04:58:05.459Z,5.24
2022-11-15T04:59:05.442Z,5.24
2022-11-15T05:00:05.440Z,5.24
2022-11-15T05:01:05.495Z,5.22
2022-11-15T05:02:05.474Z,5.23
2022-11-15T05:03:05.381Z,5.26
2022-11-15T05:04:05.423Z,5.27
2022-11-15T05:05:05.358Z,5.27
2022-11-15T05:06:05.347Z,5.29
2022-11-15T05:07:05.408Z,5.33
2022-11-15T05:08:05.319Z,5.44
2022-11-15T05:09:05.315Z,5.44
2022-11-15T05:10:05.308Z,5.44
2022-11-15T05:11:05.370Z,5.42
2022-11-15T05:12:05.275Z,5.40
2022-11-15T05:13:05.281Z,5.42
2022-11-15T05:14:05.261Z,5.49
2022-11-15T05:15:05.228Z,5.47
2022-11-15T05:16:05.227Z,5.51
2022-11-15T05:17:05.215Z,5.58
2022-11-15T05:18:05.201Z,5.52
2022-11-15T05:19:05.184Z,5.52
2022-11-15T05:20:05.248Z,5.56
2022-11-15T05:21:05.198Z,5.55
2022-11-15T05:22:05.151Z,5.52
2022-11-15T05:23:05.175Z,5.49
2022-11-15T05:24:05.208Z,5.47
2022-11-15T05:25:05.115Z,5.49
2022-11-15T05:26:09.016Z,5.51
2022-11-15T05:27:05.093Z,5.48
2022-11-15T05:28:05.135Z,5.51
2022-11-15T05:29:05.057Z,5.49
2022-11-15T05:30:05.053Z,5.55
2022-11-15T05:31:05.065Z,5.58
2022-11-15T05:32:05.031Z,5.60
2022-11-15T05:33:05.104Z,5.62
2022-11-15T05:34:05.032Z,5.59
2022-11-15T05:35:04.980Z,5.59
2022-11-15T05:36:04.992Z,5.59
2022-11-15T05:37:04.984Z,5.60
2022-11-15T05:38:05.016Z,5.65
2022-11-15T05:39:05.003Z,5.66
2022-11-15T05:40:04.970Z,5.65
2022-11-15T05:41:05.015Z,5.59
2022-11-15T05:42:05.879Z,5.55
2022-11-15T05:43:04.990Z,5.49
2022-11-15T05:44:04.889Z,5.47
2022-11-15T05:45:05.090Z,5.45
2022-11-15T05:46:05.839Z,5.44
2022-11-15T05:47:04.853Z,5.44
2022-11-15T05:48:04.821Z,5.44
2022-11-15T05:49:04.814Z,5.44
2022-11-15T05:50:04.797Z,5.45
2022-11-15T05:51:04.869Z,5.45
2022-11-15T05:52:04.766Z,5.45
2022-11-15T05:53:05.496Z,5.58
2022-11-15T05:54:04.860Z,5.75
2022-11-15T05:55:04.739Z,5.83
2022-11-15T05:56:04.866Z,5.92
2022-11-15T05:57:04.704Z,6.02
2022-11-15T05:58:04.708Z,6.05
2022-11-15T05:59:04.685Z,6.11
2022-11-15T06:00:04.693Z,6.14
2022-11-15T06:01:04.664Z,6.13
2022-11-15T06:02:04.700Z,6.10
2022-11-15T06:03:04.624Z,6.08
2022-11-15T06:04:05.144Z,5.96
2022-11-15T06:05:04.605Z,5.85
2022-11-15T06:06:04.593Z,5.78
2022-11-15T06:07:04.731Z,5.73
2022-11-15T06:08:04.573Z,5.67
2022-11-15T06:09:04.557Z,5.65
2022-11-15T06:10:04.746Z,5.60
2022-11-15T06:11:04.553Z,5.59
2022-11-15T06:12:04.594Z,5.56
2022-11-15T06:13:04.546Z,5.55
2022-11-15T06:14:04.483Z,5.52
2022-11-15T06:15:04.516Z,5.52
2022-11-15T06:16:04.480Z,5.51
2022-11-15T06:17:10.052Z,5.49
2022-11-15T06:18:05.452Z,5.49
2022-11-15T06:19:04.441Z,5.47
2022-11-15T06:20:04.430Z,5.48
2022-11-15T06:21:04.441Z,5.44
2022-11-15T06:22:04.407Z,5.45
2022-11-15T06:23:04.381Z,5.44
2022-11-15T06:24:04.379Z,5.47
2022-11-15T06:25:05.829Z,5.47
2022-11-15T06:26:04.369Z,5.47
2022-11-15T06:27:04.330Z,5.47
2022-11-15T06:28:04.318Z,5.45
2022-11-15T06:29:04.437Z,5.44
2022-11-15T06:30:04.317Z,5.44
2022-11-15T06:31:04.317Z,5.45
2022-11-15T06:32:04.298Z,5.45
2022-11-15T06:33:04.267Z,5.45
2022-11-15T06:34:04.248Z,5.47
2022-11-15T06:35:04.238Z,5.45
2022-11-15T06:36:04.246Z,5.47
2022-11-15T06:37:04.218Z,5.45
2022-11-15T06:38:04.208Z,5.45
2022-11-15T06:39:04.266Z,5.45
2022-11-15T06:40:04.179Z,5.42
2022-11-15T06:41:04.167Z,5.42
2022-11-15T06:42:04.146Z,5.44
2022-11-15T06:43:04.138Z,5.45
2022-11-15T06:44:04.122Z,5.44
2022-11-15T06:45:04.113Z,5.45
2022-11-15T06:46:04.104Z,5.44
2022-11-15T06:47:04.860Z,5.42
2022-11-15T06:48:04.073Z,5.44
2022-11-15T06:49:09.397Z,5.42
2022-11-15T06:50:05.073Z,5.42
2022-11-15T06:51:04.068Z,5.41
2022-11-15T06:52:04.024Z,5.42
2022-11-15T06:53:04.013Z,5.42
2022-11-15T06:54:04.024Z,5.41
2022-11-15T06:55:03.979Z,5.44
2022-11-15T06:56:03.983Z,5.42
2022-11-15T06:57:03.950Z,5.45
2022-11-15T06:58:03.956Z,5.47
2022-11-15T06:59:03.932Z,5.45
2022-11-15T07:00:03.932Z,5.47
2022-11-15T07:01:03.972Z,5.45
2022-11-15T07:02:03.901Z,5.49
2022-11-15T07:03:03.890Z,5.49
2022-11-15T07:04:03.869Z,5.51
2022-11-15T07:05:03.861Z,5.51
2022-11-15T07:06:07.397Z,5.52
2022-11-15T07:07:03.894Z,5.55
2022-11-15T07:08:03.835Z,5.60
2022-11-15T07:09:10.931Z,5.70
2022-11-15T07:10:03.802Z,5.70
2022-11-15T07:11:03.789Z,5.69
2022-11-15T07:12:07.667Z,5.73
2022-11-15T07:13:03.757Z,5.87
2022-11-15T07:14:03.752Z,5.95
2022-11-15T07:15:03.742Z,5.92
2022-11-15T07:16:03.733Z,5.98
2022-11-15T07:17:03.727Z,6.17
2022-11-15T07:18:03.699Z,6.20
2022-11-15T07:19:03.678Z,6.21
2022-11-15T07:20:03.663Z,6.42
2022-11-15T07:21:03.680Z,6.58
2022-11-15T07:22:03.651Z,6.48
2022-11-15T07:23:03.673Z,6.35
2022-11-15T07:24:03.667Z,6.27
2022-11-15T07:25:03.617Z,6.19
2022-11-15T07:26:03.617Z,6.13
2022-11-15T07:27:03.589Z,6.08
2022-11-15T07:28:03.593Z,6.14
2022-11-15T07:29:03.569Z,6.10
2022-11-15T07:30:03.569Z,6.06
2022-11-15T07:31:03.555Z,6.02
2022-11-15T07:32:03.550Z,6.01
2022-11-15T07:33:03.526Z,5.99
2022-11-15T07:34:03.513Z,5.99
2022-11-15T07:35:03.496Z,5.99
2022-11-15T07:36:03.499Z,5.99
2022-11-15T07:37:03.504Z,5.99
2022-11-15T07:38:03.462Z,5.96
2022-11-15T07:39:03.445Z,5.99
2022-11-15T07:40:03.443Z,6.01
2022-11-15T07:41:03.465Z,6.01
2022-11-15T07:42:03.426Z,5.99
2022-11-15T07:43:03.392Z,6.02
2022-11-15T07:44:03.464Z,6.03
2022-11-15T07:45:03.368Z,6.06
2022-11-15T07:46:03.396Z,6.05
2022-11-15T07:47:03.336Z,6.08
2022-11-15T07:48:03.330Z,6.10
2022-11-15T07:49:03.378Z,6.11
2022-11-15T07:50:03.351Z,6.14
2022-11-15T07:51:03.305Z,6.17
2022-11-15T07:52:03.283Z,6.17
2022-11-15T07:53:03.260Z,6.17
2022-11-15T07:54:03.262Z,6.17
2022-11-15T07:55:03.238Z,6.21
2022-11-15T07:56:03.251Z,6.27
2022-11-15T07:57:07.187Z,6.28
2022-11-15T07:58:03.210Z,6.33
2022-11-15T07:59:03.189Z,6.36
2022-11-15T08:00:03.229Z,6.39
2022-11-15T08:01:03.293Z,6.39
2022-11-15T08:02:03.334Z,6.40
2022-11-15T08:03:03.165Z,6.43
2022-11-15T08:04:03.140Z,6.45
2022-11-15T08:05:03.116Z,6.48
2022-11-15T08:06:03.117Z,6.48
2022-11-15T08:07:03.154Z,6.53
2022-11-15T08:08:03.085Z,6.53
2022-11-15T08:09:03.078Z,6.55
2022-11-15T08:10:03.073Z,6.58
2022-11-15T08:11:03.080Z,6.64
2022-11-15T08:12:03.055Z,6.64
2022-11-15T08:13:03.081Z,6.68
2022-11-15T08:14:03.010Z,6.68
2022-11-15T08:15:02.990Z,6.72
2022-11-15T08:16:03.001Z,6.73
2022-11-15T08:17:02.967Z,6.78
2022-11-15T08:18:02.974Z,6.81
2022-11-15T08:19:02.933Z,6.83
2022-11-15T08:20:02.938Z,6.86
2022-11-15T08:21:02.924Z,6.87
2022-11-15T08:22:02.993Z,6.90
2022-11-15T08:23:02.893Z,6.93
2022-11-15T08:24:02.881Z,6.96
2022-11-15T08:25:02.964Z,7.00
2022-11-15T08:26:03.074Z,7.01
2022-11-15T08:27:02.853Z,7.04
2022-11-15T08:28:02.832Z,7.07
2022-11-15T08:29:02.809Z,7.08
2022-11-15T08:30:02.807Z,7.12
2022-11-15T08:31:02.870Z,7.15
2022-11-15T08:32:02.778Z,7.16
2022-11-15T08:33:02.759Z,7.21
2022-11-15T08:34:02.762Z,7.23
2022-11-15T08:35:02.750Z,7.27
2022-11-15T08:36:02.730Z,7.30
2022-11-15T08:37:02.708Z,7.33
2022-11-15T08:38:02.709Z,7.37
2022-11-15T08:39:02.699Z,7.42
2022-11-15T08:40:02.702Z,7.45
2022-11-15T08:41:02.662Z,7.47
2022-11-15T08:42:02.657Z,7.50
2022-11-15T08:43:02.628Z,7.51
2022-11-15T08:44:02.626Z,7.55
2022-11-15T08:45:02.610Z,7.58
2022-11-15T08:46:02.609Z,7.66
2022-11-15T08:47:02.588Z,7.66
2022-11-15T08:48:02.606Z,7.67
2022-11-15T08:49:02.575Z,7.70
2022-11-15T08:50:02.562Z,7.74
2022-11-15T08:51:02.532Z,7.77
2022-11-15T08:52:02.535Z,7.79
2022-11-15T08:53:02.499Z,7.84
2022-11-15T08:54:02.487Z,7.86
2022-11-15T08:55:02.505Z,7.89
2022-11-15T08:56:02.480Z,7.92
2022-11-15T08:57:02.445Z,7.96
2022-11-15T08:58:02.445Z,8.00
2022-11-15T08:59:02.443Z,8.03
2022-11-15T09:00:02.415Z,8.07
2022-11-15T09:01:02.467Z,8.10
2022-11-15T09:02:02.460Z,8.14
2022-11-15T09:03:02.393Z,8.17
2022-11-15T09:04:02.369Z,8.21
2022-11-15T09:05:02.361Z,8.24
2022-11-15T09:06:02.353Z,8.27
2022-11-15T09:07:02.821Z,8.29
2022-11-15T09:08:13.864Z,8.31
2022-11-15T09:09:03.857Z,8.34
2022-11-15T09:10:02.326Z,8.39
2022-11-15T09:11:02.289Z,8.42
2022-11-15T09:12:02.982Z,8.45
2022-11-15T09:13:02.243Z,8.47
2022-11-15T09:14:02.229Z,8.54
2022-11-15T09:15:02.210Z,8.55
2022-11-15T09:16:02.212Z,8.60
2022-11-15T09:17:02.199Z,8.61
2022-11-15T09:18:02.188Z,8.64
2022-11-15T09:19:02.171Z,8.68
2022-11-15T09:20:02.173Z,8.71
2022-11-15T09:21:02.173Z,8.76
2022-11-15T09:22:02.165Z,8.79
2022-11-15T09:23:02.121Z,8.85
2022-11-15T09:24:02.347Z,8.88
2022-11-15T09:25:02.130Z,8.91
2022-11-15T09:26:02.093Z,8.93
2022-11-15T09:27:02.059Z,8.94
2022-11-15T09:28:02.044Z,8.98
2022-11-15T09:29:02.038Z,9.01
2022-11-15T09:30:02.034Z,9.06
2022-11-15T09:31:02.014Z,9.10
2022-11-15T09:32:09.078Z,9.13
2022-11-15T09:33:02.004Z,9.19
2022-11-15T09:34:02.004Z,9.22
2022-11-15T09:35:01.973Z,9.24
2022-11-15T09:36:01.945Z,9.27
2022-11-15T09:37:01.941Z,9.31
2022-11-15T09:38:01.918Z,9.32
2022-11-15T09:39:01.912Z,9.35
2022-11-15T09:40:01.899Z,9.37
2022-11-15T09:41:01.897Z,9.41
2022-11-15T09:42:01.879Z,9.40
2022-11-15T09:43:01.897Z,9.42
2022-11-15T09:44:01.877Z,9.42
2022-11-15T09:45:01.872Z,9.45
2022-11-15T09:46:01.887Z,9.49
2022-11-15T09:47:01.815Z,9.52
2022-11-15T09:48:01.821Z,9.56
2022-11-15T09:49:01.773Z,9.59
2022-11-15T09:50:01.791Z,9.60
2022-11-15T09:51:01.784Z,9.65
2022-11-15T09:52:01.756Z,9.67
2022-11-15T09:53:01.753Z,9.70
2022-11-15T09:55:02.780Z,9.74
2022-11-15T09:56:01.708Z,9.80
2022-11-15T09:57:01.672Z,9.83
2022-11-15T09:58:01.703Z,9.86
2022-11-15T09:59:01.673Z,9.89
2022-11-15T10:00:23.922Z,9.92
2022-11-15T10:01:02.749Z,9.93
2022-11-15T10:02:01.641Z,9.98
2022-11-15T10:03:01.641Z,10.02
2022-11-15T10:04:01.587Z,10.06
2022-11-15T10:05:01.613Z,10.10
2022-11-15T10:06:01.594Z,10.11
2022-11-15T10:07:01.656Z,10.10
2022-11-15T10:08:01.621Z,10.11
2022-11-15T10:09:01.581Z,10.14
2022-11-15T10:10:01.514Z,10.14
2022-11-15T10:11:30.481Z,10.16
2022-11-15T10:12:02.490Z,10.17
2022-11-15T10:13:01.505Z,10.18
2022-11-15T10:14:01.461Z,10.18
2022-11-15T10:15:01.466Z,10.22
2022-11-15T10:16:01.496Z,10.24
2022-11-15T10:17:01.563Z,10.25
2022-11-15T10:18:01.488Z,10.25
2022-11-15T10:19:01.400Z,10.29
2022-11-15T10:20:05.583Z,10.31
2022-11-15T10:21:01.491Z,10.34
2022-11-15T10:22:01.375Z,10.35
2022-11-15T10:23:01.396Z,10.39
2022-11-15T10:24:01.365Z,10.38
2022-11-15T10:25:01.358Z,10.43
2022-11-15T10:26:06.679Z,10.44
2022-11-15T10:27:02.295Z,10.51
2022-11-15T10:28:01.313Z,10.54
2022-11-15T10:29:01.286Z,10.55
2022-11-15T10:30:01.289Z,10.57
2022-11-15T10:31:01.288Z,10.58
2022-11-15T10:32:01.219Z,10.60
2022-11-15T10:33:01.232Z,10.63
2022-11-15T10:34:01.204Z,10.66
2022-11-15T10:35:01.793Z,10.68
2022-11-15T10:36:01.184Z,10.69
2022-11-15T10:37:01.162Z,10.73
2022-11-15T10:38:01.171Z,10.72
2022-11-15T10:39:01.132Z,10.75
2022-11-15T10:40:01.133Z,10.75
2022-11-15T10:41:01.188Z,10.78
2022-11-15T10:42:03.829Z,10.80
2022-11-15T10:43:02.123Z,10.83
2022-11-15T10:44:01.091Z,10.84
2022-11-15T10:45:01.063Z,10.86
2022-11-15T10:46:13.559Z,10.90
2022-11-15T10:47:02.088Z,10.91
2022-11-15T10:48:01.032Z,10.93
2022-11-15T10:49:01.008Z,10.98
2022-11-15T10:50:00.985Z,10.99
2022-11-15T10:51:01.008Z,11.01
2022-11-15T10:52:01.059Z,11.03
2022-11-15T10:53:00.974Z,11.05
2022-11-15T10:54:00.961Z,11.08
2022-11-15T10:55:00.948Z,11.08
2022-11-15T10:56:00.979Z,11.11
2022-11-15T10:57:00.911Z,11.13
2022-11-15T10:58:00.938Z,11.17
2022-11-15T10:59:00.895Z,11.19
2022-11-15T11:00:00.887Z,11.21
2022-11-15T11:01:00.900Z,11.23
2022-11-15T11:02:00.855Z,11.24
2022-11-15T11:03:00.859Z,11.26
2022-11-15T11:04:00.849Z,11.30
2022-11-15T11:05:00.829Z,11.33
2022-11-15T11:06:00.847Z,11.36
2022-11-15T11:07:00.853Z,11.39
2022-11-15T11:08:00.789Z,11.42
2022-11-15T11:09:00.761Z,11.44
2022-11-15T11:10:00.767Z,11.45
2022-11-15T11:11:03.092Z,11.45
2022-11-15T11:12:00.711Z,11.46
2022-11-15T11:13:00.707Z,11.46
2022-11-15T11:14:00.706Z,11.51
2022-11-15T11:15:00.732Z,11.53
2022-11-15T11:16:00.692Z,11.53
2022-11-15T11:17:00.666Z,11.54
2022-11-15T11:18:00.628Z,11.59
2022-11-15T11:19:00.631Z,11.62
2022-11-15T11:20:00.643Z,11.62
2022-11-15T11:21:00.632Z,11.63
2022-11-15T11:22:00.587Z,11.67
2022-11-15T11:23:00.637Z,11.69
2022-11-15T11:24:00.581Z,11.72
2022-11-15T11:25:00.580Z,11.74
2022-11-15T11:26:00.531Z,11.78
2022-11-15T11:27:00.540Z,11.78
2022-11-15T11:28:00.531Z,11.81
2022-11-15T11:29:00.514Z,11.81
2022-11-15T11:30:00.501Z,11.84
2022-11-15T11:31:00.516Z,11.82
2022-11-15T11:32:00.472Z,11.85
2022-11-15T11:33:00.443Z,11.88
2022-11-15T11:34:00.478Z,11.93
2022-11-15T11:35:00.434Z,11.93
2022-11-15T11:36:00.403Z,11.93
2022-11-15T11:37:00.460Z,11.94
2022-11-15T11:38:00.365Z,11.94
2022-11-15T11:39:00.416Z,11.94
2022-11-15T11:40:00.350Z,11.98
2022-11-15T11:41:00.386Z,11.98
2022-11-15T11:42:00.377Z,12.01
2022-11-15T11:43:00.525Z,12.03
2022-11-15T11:44:00.338Z,12.03
2022-11-15T11:45:00.324Z,12.04
2022-11-15T11:46:00.293Z,12.07
2022-11-15T11:47:00.278Z,12.07
2022-11-15T11:48:00.301Z,12.07
2022-11-15T11:49:00.267Z,12.11
2022-11-15T11:50:00.230Z,12.11
2022-11-15T11:51:00.231Z,12.16
2022-11-15T11:52:00.270Z,12.15
2022-11-15T11:53:04.025Z,12.18
2022-11-15T11:54:00.209Z,12.18
2022-11-15T11:55:00.174Z,12.19
2022-11-15T11:56:00.157Z,12.21
2022-11-15T11:57:00.167Z,12.22
2022-11-15T11:58:00.167Z,12.22
2022-11-15T11:59:00.133Z,12.21
2022-11-15T12:00:00.105Z,12.25
2022-11-15T12:01:00.130Z,12.29
2022-11-15T12:02:00.312Z,12.29
2022-11-15T12:03:00.298Z,12.31
2022-11-15T12:04:00.039Z,12.33
2022-11-15T12:05:00.054Z,12.33
2022-11-15T12:06:00.090Z,12.31
2022-11-15T12:07:00.215Z,12.34
2022-11-15T12:08:03.264Z,12.34
2022-11-15T12:08:59.992Z,12.36
2022-11-15T12:09:59.973Z,12.38
2022-11-15T12:10:59.963Z,12.40
2022-11-15T12:11:59.936Z,12.43
2022-11-15T12:12:59.937Z,12.41
2022-11-15T12:13:59.959Z,12.44
2022-11-15T12:14:59.898Z,12.48
2022-11-15T12:15:59.926Z,12.48
2022-11-15T12:16:59.913Z,12.49
2022-11-15T12:17:59.857Z,12.49
2022-11-15T12:18:59.857Z,12.52
2022-11-15T12:19:59.858Z,12.51
2022-11-15T12:20:59.816Z,12.54
2022-11-15T12:21:59.814Z,12.55
2022-11-15T12:22:59.856Z,12.55
2022-11-15T12:23:59.786Z,12.59
2022-11-15T12:24:59.770Z,12.59
2022-11-15T12:25:59.760Z,12.61
2022-11-15T12:26:59.780Z,12.62
2022-11-15T12:27:59.749Z,12.63
2022-11-15T12:29:07.326Z,12.63
2022-11-15T12:30:00.707Z,12.66
2022-11-15T12:30:59.697Z,12.67
2022-11-15T12:31:59.697Z,12.69
2022-11-15T12:32:59.696Z,12.69
2022-11-15T12:34:02.976Z,12.73
2022-11-15T12:34:59.691Z,12.73
2022-11-15T12:35:59.656Z,12.77
2022-11-15T12:36:59.633Z,12.79
2022-11-15T12:37:59.630Z,12.80
2022-11-15T12:38:59.638Z,12.81
2022-11-15T12:40:03.462Z,12.81
2022-11-15T12:40:59.579Z,12.81
2022-11-15T12:41:59.557Z,12.81
2022-11-15T12:42:59.537Z,12.81
2022-11-15T12:43:59.544Z,12.85
2022-11-15T12:44:59.539Z,12.87
2022-11-15T12:45:59.524Z,12.88
2022-11-15T12:46:59.516Z,12.92
2022-11-15T12:47:59.506Z,12.92
2022-11-15T12:48:59.482Z,12.94
2022-11-15T12:49:59.457Z,12.96
2022-11-15T12:50:59.442Z,12.98
2022-11-15T12:51:59.461Z,12.98
2022-11-15T12:52:59.467Z,12.99
2022-11-15T12:53:59.403Z,12.99
2022-11-15T12:54:59.393Z,13.01
2022-11-15T12:55:59.388Z,13.03
2022-11-15T12:56:59.400Z,13.03
2022-11-15T12:57:59.391Z,13.04
2022-11-15T12:58:59.389Z,13.07
2022-11-15T12:59:59.348Z,13.06
2022-11-15T13:00:59.393Z,13.09
2022-11-15T13:01:59.319Z,13.12
2022-11-15T13:02:59.295Z,13.13
2022-11-15T13:03:59.286Z,13.10
2022-11-15T13:04:59.272Z,13.10
2022-11-15T13:05:59.252Z,13.13
2022-11-15T13:06:59.313Z,13.16
2022-11-15T13:07:59.252Z,13.16
2022-11-15T13:08:59.248Z,13.14
2022-11-15T13:09:59.190Z,13.13
2022-11-15T13:10:59.234Z,13.13
2022-11-15T13:11:59.278Z,13.16
2022-11-15T13:12:59.196Z,13.14